sensor_id;sensor_type;location;lat;lon;timestamp;P1;durP1;ratioP1;P2;durP2;ratioP2
11171;SDS011;5642;50.830;12.082;2023-06-10T00:01:38;2.90;;;2.70;;
11171;SDS011;5642;50.830;12.082;2023-06-10T00:04:04;4.22;;;2.90;;
11171;SDS011;5642;50.830;12.082;2023-06-10T00:06:30;3.15;;;2.92;;
11171;SDS011;5642;50.830;12.082;2023-06-10T00:09:04;3.33;;;3.03;;
11171;SDS011;5642;50.830;12.082;2023-06-10T00:11:31;3.08;;;2.88;;
11171;SDS011;5642;50.830;12.082;2023-06-10T00:13:58;2.55;;;2.35;;
11171;SDS011;5642;50.830;12.082;2023-06-10T00:16:25;3.03;;;2.83;;
11171;SDS011;5642;50.830;12.082;2023-06-10T00:18:51;3.22;;;2.92;;
11171;SDS011;5642;50.830;12.082;2023-06-10T00:21:17;3.10;;;2.80;;
11171;SDS011;5642;50.830;12.082;2023-06-10T00:23:44;3.30;;;2.90;;
11171;SDS011;5642;50.830;12.082;2023-06-10T00:26:10;2.63;;;2.45;;
11171;SDS011;5642;50.830;12.082;2023-06-10T00:28:36;3.08;;;2.88;;
11171;SDS011;5642;50.830;12.082;2023-06-10T00:31:02;3.30;;;3.00;;
11171;SDS011;5642;50.830;12.082;2023-06-10T00:33:29;3.08;;;2.88;;
11171;SDS011;5642;50.830;12.082;2023-06-10T00:35:56;3.22;;;2.75;;
11171;SDS011;5642;50.830;12.082;2023-06-10T00:38:22;3.47;;;3.17;;
11171;SDS011;5642;50.830;12.082;2023-06-10T00:40:48;3.05;;;2.85;;
11171;SDS011;5642;50.830;12.082;2023-06-10T00:43:15;2.90;;;2.70;;
11171;SDS011;5642;50.830;12.082;2023-06-10T00:45:41;2.92;;;2.72;;
11171;SDS011;5642;50.830;12.082;2023-06-10T00:48:07;3.53;;;2.97;;
11171;SDS011;5642;50.830;12.082;2023-06-10T00:50:33;3.35;;;3.08;;
11171;SDS011;5642;50.830;12.082;2023-06-10T00:53:00;3.10;;;2.90;;
11171;SDS011;5642;50.830;12.082;2023-06-10T00:55:27;2.78;;;2.58;;
11171;SDS011;5642;50.830;12.082;2023-06-10T00:57:53;4.60;;;2.85;;
11171;SDS011;5642;50.830;12.082;2023-06-10T01:00:19;2.90;;;2.70;;
11171;SDS011;5642;50.830;12.082;2023-06-10T01:02:45;4.93;;;2.90;;
11171;SDS011;5642;50.830;12.082;2023-06-10T01:05:11;3.05;;;2.85;;
11171;SDS011;5642;50.830;12.082;2023-06-10T01:07:40;2.90;;;2.70;;
11171;SDS011;5642;50.830;12.082;2023-06-10T01:10:19;3.13;;;2.92;;
11171;SDS011;5642;50.830;12.082;2023-06-10T01:13:00;2.97;;;2.78;;
11171;SDS011;5642;50.830;12.082;2023-06-10T01:15:29;2.90;;;2.70;;
11171;SDS011;5642;50.830;12.082;2023-06-10T01:18:00;3.85;;;2.53;;
11171;SDS011;5642;50.830;12.082;2023-06-10T01:20:28;2.88;;;2.67;;
11171;SDS011;5642;50.830;12.082;2023-06-10T01:22:55;2.90;;;2.70;;
11171;SDS011;5642;50.830;12.082;2023-06-10T01:25:26;2.80;;;2.60;;
11171;SDS011;5642;50.830;12.082;2023-06-10T01:27:59;3.00;;;2.80;;
11171;SDS011;5642;50.830;12.082;2023-06-10T01:33:41;3.10;;;2.80;;
11171;SDS011;5642;50.830;12.082;2023-06-10T01:36:10;2.85;;;2.65;;
11171;SDS011;5642;50.830;12.082;2023-06-10T01:38:39;2.85;;;2.65;;
11171;SDS011;5642;50.830;12.082;2023-06-10T01:41:07;2.72;;;2.53;;
11171;SDS011;5642;50.830;12.082;2023-06-10T01:43:37;2.97;;;2.67;;
11171;SDS011;5642;50.830;12.082;2023-06-10T01:46:04;3.00;;;2.80;;
11171;SDS011;5642;50.830;12.082;2023-06-10T01:48:31;2.97;;;2.78;;
11171;SDS011;5642;50.830;12.082;2023-06-10T01:50:58;2.90;;;2.70;;
11171;SDS011;5642;50.830;12.082;2023-06-10T01:53:24;3.17;;;2.97;;
11171;SDS011;5642;50.830;12.082;2023-06-10T01:55:50;3.00;;;2.80;;
11171;SDS011;5642;50.830;12.082;2023-06-10T01:58:16;3.00;;;2.80;;
11171;SDS011;5642;50.830;12.082;2023-06-10T02:00:42;3.00;;;2.80;;
11171;SDS011;5642;50.830;12.082;2023-06-10T02:03:08;3.00;;;2.80;;
11171;SDS011;5642;50.830;12.082;2023-06-10T02:05:34;5.93;;;3.00;;
11171;SDS011;5642;50.830;12.082;2023-06-10T02:08:00;2.85;;;2.65;;
11171;SDS011;5642;50.830;12.082;2023-06-10T02:10:26;3.10;;;2.90;;
11171;SDS011;5642;50.830;12.082;2023-06-10T02:12:52;3.08;;;2.83;;
11171;SDS011;5642;50.830;12.082;2023-06-10T02:15:18;3.10;;;2.75;;
11171;SDS011;5642;50.830;12.082;2023-06-10T02:17:45;3.00;;;2.80;;
11171;SDS011;5642;50.830;12.082;2023-06-10T02:20:11;3.33;;;3.08;;
11171;SDS011;5642;50.830;12.082;2023-06-10T02:22:37;3.15;;;2.95;;
11171;SDS011;5642;50.830;12.082;2023-06-10T02:25:03;2.80;;;2.60;;
11171;SDS011;5642;50.830;12.082;2023-06-10T02:27:31;2.97;;;2.67;;
11171;SDS011;5642;50.830;12.082;2023-06-10T02:29:57;3.20;;;2.90;;
11171;SDS011;5642;50.830;12.082;2023-06-10T02:32:23;2.75;;;2.55;;
11171;SDS011;5642;50.830;12.082;2023-06-10T02:34:49;3.00;;;2.80;;
11171;SDS011;5642;50.830;12.082;2023-06-10T02:37:15;3.10;;;2.90;;
11171;SDS011;5642;50.830;12.082;2023-06-10T02:39:41;3.00;;;2.80;;
11171;SDS011;5642;50.830;12.082;2023-06-10T02:42:07;2.90;;;2.70;;
11171;SDS011;5642;50.830;12.082;2023-06-10T02:44:33;3.17;;;2.97;;
11171;SDS011;5642;50.830;12.082;2023-06-10T02:46:59;3.03;;;2.83;;
11171;SDS011;5642;50.830;12.082;2023-06-10T02:49:25;3.25;;;3.03;;
11171;SDS011;5642;50.830;12.082;2023-06-10T02:51:54;2.70;;;2.50;;
11171;SDS011;5642;50.830;12.082;2023-06-10T02:54:22;3.05;;;2.85;;
11171;SDS011;5642;50.830;12.082;2023-06-10T02:56:49;3.38;;;2.90;;
11171;SDS011;5642;50.830;12.082;2023-06-10T02:59:15;3.03;;;2.60;;
11171;SDS011;5642;50.830;12.082;2023-06-10T03:01:41;2.88;;;2.67;;
11171;SDS011;5642;50.830;12.082;2023-06-10T03:04:08;3.03;;;2.83;;
11171;SDS011;5642;50.830;12.082;2023-06-10T03:06:34;3.00;;;2.80;;
11171;SDS011;5642;50.830;12.082;2023-06-10T03:09:01;2.88;;;2.67;;
11171;SDS011;5642;50.830;12.082;2023-06-10T03:11:33;2.85;;;2.65;;
11171;SDS011;5642;50.830;12.082;2023-06-10T03:13:59;2.92;;;2.72;;
11171;SDS011;5642;50.830;12.082;2023-06-10T03:16:25;3.30;;;3.00;;
11171;SDS011;5642;50.830;12.082;2023-06-10T03:18:53;3.40;;;3.10;;
11171;SDS011;5642;50.830;12.082;2023-06-10T03:21:19;3.33;;;3.10;;
11171;SDS011;5642;50.830;12.082;2023-06-10T03:23:46;3.40;;;3.10;;
11171;SDS011;5642;50.830;12.082;2023-06-10T03:26:12;3.17;;;2.97;;
11171;SDS011;5642;50.830;12.082;2023-06-10T03:28:39;3.17;;;2.88;;
11171;SDS011;5642;50.830;12.082;2023-06-10T03:31:05;3.10;;;2.90;;
11171;SDS011;5642;50.830;12.082;2023-06-10T03:33:32;3.03;;;2.83;;
11171;SDS011;5642;50.830;12.082;2023-06-10T03:35:58;3.17;;;2.97;;
11171;SDS011;5642;50.830;12.082;2023-06-10T03:38:24;2.90;;;2.70;;
11171;SDS011;5642;50.830;12.082;2023-06-10T03:40:50;3.00;;;2.80;;
11171;SDS011;5642;50.830;12.082;2023-06-10T03:43:16;3.28;;;2.97;;
11171;SDS011;5642;50.830;12.082;2023-06-10T03:45:42;3.28;;;2.97;;
11171;SDS011;5642;50.830;12.082;2023-06-10T03:48:08;3.28;;;2.83;;
11171;SDS011;5642;50.830;12.082;2023-06-10T03:50:35;2.90;;;2.70;;
11171;SDS011;5642;50.830;12.082;2023-06-10T03:53:01;3.20;;;2.97;;
11171;SDS011;5642;50.830;12.082;2023-06-10T03:55:28;3.20;;;2.95;;
11171;SDS011;5642;50.830;12.082;2023-06-10T03:57:54;3.10;;;2.90;;
11171;SDS011;5642;50.830;12.082;2023-06-10T04:00:20;3.33;;;3.03;;
11171;SDS011;5642;50.830;12.082;2023-06-10T04:02:50;3.08;;;2.88;;
11171;SDS011;5642;50.830;12.082;2023-06-10T04:05:18;3.10;;;2.80;;
11171;SDS011;5642;50.830;12.082;2023-06-10T04:07:47;3.47;;;2.70;;
11171;SDS011;5642;50.830;12.082;2023-06-10T04:10:17;3.20;;;2.80;;
11171;SDS011;5642;50.830;12.082;2023-06-10T04:12:43;3.20;;;2.90;;
11171;SDS011;5642;50.830;12.082;2023-06-10T04:15:10;2.90;;;2.70;;
11171;SDS011;5642;50.830;12.082;2023-06-10T04:17:37;3.03;;;2.83;;
11171;SDS011;5642;50.830;12.082;2023-06-10T04:20:03;3.55;;;3.25;;
11171;SDS011;5642;50.830;12.082;2023-06-10T04:22:32;3.25;;;3.05;;
11171;SDS011;5642;50.830;12.082;2023-06-10T04:24:58;3.10;;;2.90;;
11171;SDS011;5642;50.830;12.082;2023-06-10T04:27:25;3.13;;;2.92;;
11171;SDS011;5642;50.830;12.082;2023-06-10T04:29:51;3.00;;;2.78;;
11171;SDS011;5642;50.830;12.082;2023-06-10T04:32:18;3.60;;;3.30;;
11171;SDS011;5642;50.830;12.082;2023-06-10T04:34:43;3.65;;;3.35;;
11171;SDS011;5642;50.830;12.082;2023-06-10T04:37:10;3.25;;;2.95;;
11171;SDS011;5642;50.830;12.082;2023-06-10T04:39:36;3.20;;;2.90;;
11171;SDS011;5642;50.830;12.082;2023-06-10T04:42:02;3.22;;;2.92;;
11171;SDS011;5642;50.830;12.082;2023-06-10T04:44:28;3.25;;;2.80;;
11171;SDS011;5642;50.830;12.082;2023-06-10T04:46:58;3.17;;;2.83;;
11171;SDS011;5642;50.830;12.082;2023-06-10T04:49:24;2.60;;;2.40;;
11171;SDS011;5642;50.830;12.082;2023-06-10T04:51:50;2.55;;;2.35;;
11171;SDS011;5642;50.830;12.082;2023-06-10T04:54:16;2.47;;;2.28;;
11171;SDS011;5642;50.830;12.082;2023-06-10T04:56:42;4.50;;;1.98;;
11171;SDS011;5642;50.830;12.082;2023-06-10T04:59:10;3.13;;;2.22;;
11171;SDS011;5642;50.830;12.082;2023-06-10T05:01:36;2.15;;;1.98;;
11171;SDS011;5642;50.830;12.082;2023-06-10T05:04:02;2.45;;;2.00;;
11171;SDS011;5642;50.830;12.082;2023-06-10T05:06:29;1.70;;;1.60;;
11171;SDS011;5642;50.830;12.082;2023-06-10T05:08:56;1.92;;;1.67;;
11171;SDS011;5642;50.830;12.082;2023-06-10T05:11:22;2.40;;;1.48;;
11171;SDS011;5642;50.830;12.082;2023-06-10T05:13:48;1.67;;;1.58;;
11171;SDS011;5642;50.830;12.082;2023-06-10T05:16:14;1.70;;;1.60;;
11171;SDS011;5642;50.830;12.082;2023-06-10T05:18:40;1.73;;;1.60;;
11171;SDS011;5642;50.830;12.082;2023-06-10T05:21:07;2.05;;;1.70;;
11171;SDS011;5642;50.830;12.082;2023-06-10T05:23:33;1.73;;;1.63;;
11171;SDS011;5642;50.830;12.082;2023-06-10T05:26:01;1.98;;;1.60;;
11171;SDS011;5642;50.830;12.082;2023-06-10T05:28:27;1.55;;;1.45;;
11171;SDS011;5642;50.830;12.082;2023-06-10T05:30:56;1.70;;;1.60;;
11171;SDS011;5642;50.830;12.082;2023-06-10T05:33:25;1.83;;;1.65;;
11171;SDS011;5642;50.830;12.082;2023-06-10T05:35:51;1.67;;;1.58;;
11171;SDS011;5642;50.830;12.082;2023-06-10T05:38:18;1.90;;;1.55;;
11171;SDS011;5642;50.830;12.082;2023-06-10T05:40:45;1.60;;;1.50;;
11171;SDS011;5642;50.830;12.082;2023-06-10T05:43:12;1.83;;;1.73;;
11171;SDS011;5642;50.830;12.082;2023-06-10T05:45:38;1.88;;;1.63;;
11171;SDS011;5642;50.830;12.082;2023-06-10T05:48:06;1.85;;;1.67;;
11171;SDS011;5642;50.830;12.082;2023-06-10T05:50:41;1.80;;;1.70;;
11171;SDS011;5642;50.830;12.082;2023-06-10T05:53:16;2.88;;;1.73;;
11171;SDS011;5642;50.830;12.082;2023-06-10T05:55:43;1.55;;;1.45;;
11171;SDS011;5642;50.830;12.082;2023-06-10T05:58:11;1.60;;;1.50;;
11171;SDS011;5642;50.830;12.082;2023-06-10T06:00:41;1.70;;;1.60;;
11171;SDS011;5642;50.830;12.082;2023-06-10T06:03:10;1.73;;;1.63;;
11171;SDS011;5642;50.830;12.082;2023-06-10T06:05:37;1.80;;;1.70;;
11171;SDS011;5642;50.830;12.082;2023-06-10T06:08:05;1.60;;;1.50;;
11171;SDS011;5642;50.830;12.082;2023-06-10T06:10:31;1.60;;;1.50;;
11171;SDS011;5642;50.830;12.082;2023-06-10T06:12:57;1.83;;;1.70;;
11171;SDS011;5642;50.830;12.082;2023-06-10T06:15:24;1.80;;;1.70;;
11171;SDS011;5642;50.830;12.082;2023-06-10T06:17:51;1.52;;;1.42;;
11171;SDS011;5642;50.830;12.082;2023-06-10T06:20:21;2.55;;;1.70;;
11171;SDS011;5642;50.830;12.082;2023-06-10T06:22:48;2.30;;;1.80;;
11171;SDS011;5642;50.830;12.082;2023-06-10T06:25:14;2.30;;;1.67;;
11171;SDS011;5642;50.830;12.082;2023-06-10T06:27:40;1.98;;;1.75;;
11171;SDS011;5642;50.830;12.082;2023-06-10T06:30:09;1.63;;;1.52;;
11171;SDS011;5642;50.830;12.082;2023-06-10T06:32:36;2.10;;;1.98;;
11171;SDS011;5642;50.830;12.082;2023-06-10T06:35:03;2.08;;;1.60;;
11171;SDS011;5642;50.830;12.082;2023-06-10T06:37:35;2.65;;;1.90;;
11171;SDS011;5642;50.830;12.082;2023-06-10T06:40:02;2.03;;;1.83;;
11171;SDS011;5642;50.830;12.082;2023-06-10T06:42:29;2.03;;;1.70;;
11171;SDS011;5642;50.830;12.082;2023-06-10T06:44:55;1.90;;;1.67;;
11171;SDS011;5642;50.830;12.082;2023-06-10T06:47:22;1.80;;;1.70;;
11171;SDS011;5642;50.830;12.082;2023-06-10T06:49:48;2.08;;;1.83;;
11171;SDS011;5642;50.830;12.082;2023-06-10T06:52:14;1.75;;;1.65;;
11171;SDS011;5642;50.830;12.082;2023-06-10T06:54:41;1.70;;;1.60;;
11171;SDS011;5642;50.830;12.082;2023-06-10T06:57:07;1.95;;;1.85;;
11171;SDS011;5642;50.830;12.082;2023-06-10T06:59:33;1.77;;;1.63;;
11171;SDS011;5642;50.830;12.082;2023-06-10T07:02:00;1.70;;;1.60;;
11171;SDS011;5642;50.830;12.082;2023-06-10T07:04:26;1.90;;;1.80;;
11171;SDS011;5642;50.830;12.082;2023-06-10T07:06:55;1.70;;;1.60;;
11171;SDS011;5642;50.830;12.082;2023-06-10T07:09:21;1.80;;;1.70;;
11171;SDS011;5642;50.830;12.082;2023-06-10T07:11:54;1.77;;;1.67;;
11171;SDS011;5642;50.830;12.082;2023-06-10T07:14:33;3.60;;;1.90;;
11171;SDS011;5642;50.830;12.082;2023-06-10T07:17:01;1.70;;;1.60;;
11171;SDS011;5642;50.830;12.082;2023-06-10T07:19:27;1.92;;;1.73;;
11171;SDS011;5642;50.830;12.082;2023-06-10T07:22:00;2.42;;;1.85;;
11171;SDS011;5642;50.830;12.082;2023-06-10T07:24:38;1.83;;;1.73;;
11171;SDS011;5642;50.830;12.082;2023-06-10T07:27:04;2.05;;;1.88;;
11171;SDS011;5642;50.830;12.082;2023-06-10T07:29:32;2.08;;;1.92;;
11171;SDS011;5642;50.830;12.082;2023-06-10T07:31:59;2.17;;;1.83;;
11171;SDS011;5642;50.830;12.082;2023-06-10T07:34:31;1.75;;;1.65;;
11171;SDS011;5642;50.830;12.082;2023-06-10T07:37:00;1.83;;;1.73;;
11171;SDS011;5642;50.830;12.082;2023-06-10T07:39:27;1.75;;;1.60;;
11171;SDS011;5642;50.830;12.082;2023-06-10T07:41:53;1.63;;;1.52;;
11171;SDS011;5642;50.830;12.082;2023-06-10T07:44:23;1.88;;;1.70;;
11171;SDS011;5642;50.830;12.082;2023-06-10T07:46:49;1.80;;;1.70;;
11171;SDS011;5642;50.830;12.082;2023-06-10T07:49:15;2.17;;;1.83;;
11171;SDS011;5642;50.830;12.082;2023-06-10T07:51:45;2.03;;;1.83;;
11171;SDS011;5642;50.830;12.082;2023-06-10T07:54:11;1.90;;;1.80;;
11171;SDS011;5642;50.830;12.082;2023-06-10T07:56:38;1.63;;;1.52;;
11171;SDS011;5642;50.830;12.082;2023-06-10T07:59:04;1.83;;;1.73;;
11171;SDS011;5642;50.830;12.082;2023-06-10T08:01:31;1.85;;;1.75;;
11171;SDS011;5642;50.830;12.082;2023-06-10T08:03:58;1.75;;;1.65;;
11171;SDS011;5642;50.830;12.082;2023-06-10T08:06:24;1.55;;;1.45;;
11171;SDS011;5642;50.830;12.082;2023-06-10T08:08:51;1.88;;;1.77;;
11171;SDS011;5642;50.830;12.082;2023-06-10T08:11:17;1.60;;;1.50;;
11171;SDS011;5642;50.830;12.082;2023-06-10T08:13:46;1.63;;;1.52;;
11171;SDS011;5642;50.830;12.082;2023-06-10T08:16:14;1.80;;;1.70;;
11171;SDS011;5642;50.830;12.082;2023-06-10T08:18:41;1.88;;;1.77;;
11171;SDS011;5642;50.830;12.082;2023-06-10T08:21:07;1.77;;;1.67;;
11171;SDS011;5642;50.830;12.082;2023-06-10T08:23:33;1.80;;;1.70;;
11171;SDS011;5642;50.830;12.082;2023-06-10T08:25:59;2.10;;;1.92;;
11171;SDS011;5642;50.830;12.082;2023-06-10T08:28:25;1.90;;;1.80;;
11171;SDS011;5642;50.830;12.082;2023-06-10T08:30:51;2.55;;;1.67;;
11171;SDS011;5642;50.830;12.082;2023-06-10T08:33:17;2.08;;;1.98;;
11171;SDS011;5642;50.830;12.082;2023-06-10T08:35:44;1.75;;;1.65;;
11171;SDS011;5642;50.830;12.082;2023-06-10T08:38:13;1.67;;;1.58;;
11171;SDS011;5642;50.830;12.082;2023-06-10T08:40:39;1.75;;;1.65;;
11171;SDS011;5642;50.830;12.082;2023-06-10T08:45:59;1.90;;;1.80;;
11171;SDS011;5642;50.830;12.082;2023-06-10T08:48:29;1.75;;;1.65;;
11171;SDS011;5642;50.830;12.082;2023-06-10T08:50:59;1.88;;;1.77;;
11171;SDS011;5642;50.830;12.082;2023-06-10T08:53:30;1.70;;;1.60;;
11171;SDS011;5642;50.830;12.082;2023-06-10T08:55:59;1.63;;;1.52;;
11171;SDS011;5642;50.830;12.082;2023-06-10T08:58:29;2.10;;;1.90;;
11171;SDS011;5642;50.830;12.082;2023-06-10T09:00:58;2.20;;;1.98;;
11171;SDS011;5642;50.830;12.082;2023-06-10T09:03:25;1.80;;;1.70;;
11171;SDS011;5642;50.830;12.082;2023-06-10T09:05:53;1.77;;;1.67;;
11171;SDS011;5642;50.830;12.082;2023-06-10T09:08:20;1.90;;;1.80;;
11171;SDS011;5642;50.830;12.082;2023-06-10T09:10:47;1.75;;;1.65;;
11171;SDS011;5642;50.830;12.082;2023-06-10T09:13:15;1.80;;;1.70;;
11171;SDS011;5642;50.830;12.082;2023-06-10T09:15:44;1.80;;;1.70;;
11171;SDS011;5642;50.830;12.082;2023-06-10T09:18:12;2.25;;;1.75;;
11171;SDS011;5642;50.830;12.082;2023-06-10T09:20:41;1.75;;;1.65;;
11171;SDS011;5642;50.830;12.082;2023-06-10T09:23:08;1.83;;;1.73;;
11171;SDS011;5642;50.830;12.082;2023-06-10T09:25:36;1.70;;;1.60;;
11171;SDS011;5642;50.830;12.082;2023-06-10T09:28:03;1.85;;;1.75;;
11171;SDS011;5642;50.830;12.082;2023-06-10T09:30:31;2.28;;;2.08;;
11171;SDS011;5642;50.830;12.082;2023-06-10T09:33:03;1.80;;;1.70;;
11171;SDS011;5642;50.830;12.082;2023-06-10T09:35:36;1.90;;;1.80;;
11171;SDS011;5642;50.830;12.082;2023-06-10T09:38:08;2.60;;;1.83;;
11171;SDS011;5642;50.830;12.082;2023-06-10T09:40:34;1.98;;;1.88;;
11171;SDS011;5642;50.830;12.082;2023-06-10T09:43:14;1.90;;;1.80;;
11171;SDS011;5642;50.830;12.082;2023-06-10T09:45:40;2.10;;;2.00;;
11171;SDS011;5642;50.830;12.082;2023-06-10T09:48:06;1.92;;;1.83;;
11171;SDS011;5642;50.830;12.082;2023-06-10T09:50:33;1.77;;;1.67;;
11171;SDS011;5642;50.830;12.082;2023-06-10T09:53:00;2.20;;;2.10;;
11171;SDS011;5642;50.830;12.082;2023-06-10T09:55:32;2.58;;;2.38;;
11171;SDS011;5642;50.830;12.082;2023-06-10T09:58:00;2.15;;;2.05;;
11171;SDS011;5642;50.830;12.082;2023-06-10T10:00:26;1.95;;;1.83;;
11171;SDS011;5642;50.830;12.082;2023-06-10T10:02:53;2.13;;;2.03;;
11171;SDS011;5642;50.830;12.082;2023-06-10T10:05:20;2.10;;;2.00;;
11171;SDS011;5642;50.830;12.082;2023-06-10T10:07:47;2.55;;;2.35;;
11171;SDS011;5642;50.830;12.082;2023-06-10T10:10:15;2.10;;;2.00;;
11171;SDS011;5642;50.830;12.082;2023-06-10T10:12:46;1.92;;;1.83;;
11171;SDS011;5642;50.830;12.082;2023-06-10T10:15:13;2.42;;;2.00;;
11171;SDS011;5642;50.830;12.082;2023-06-10T10:17:46;2.20;;;2.08;;
11171;SDS011;5642;50.830;12.082;2023-06-10T10:20:27;2.05;;;1.95;;
11171;SDS011;5642;50.830;12.082;2023-06-10T10:22:58;2.42;;;2.22;;
11171;SDS011;5642;50.830;12.082;2023-06-10T10:25:28;2.50;;;2.33;;
11171;SDS011;5642;50.830;12.082;2023-06-10T10:28:08;2.17;;;2.08;;
11171;SDS011;5642;50.830;12.082;2023-06-10T10:30:42;2.40;;;2.20;;
11171;SDS011;5642;50.830;12.082;2023-06-10T10:36:11;2.60;;;2.40;;
11171;SDS011;5642;50.830;12.082;2023-06-10T10:38:42;2.75;;;2.55;;
11171;SDS011;5642;50.830;12.082;2023-06-10T10:41:11;2.53;;;2.33;;
11171;SDS011;5642;50.830;12.082;2023-06-10T10:43:38;2.63;;;2.42;;
11171;SDS011;5642;50.830;12.082;2023-06-10T10:46:08;2.50;;;2.30;;
11171;SDS011;5642;50.830;12.082;2023-06-10T10:48:40;2.95;;;2.65;;
11171;SDS011;5642;50.830;12.082;2023-06-10T10:51:08;2.72;;;2.47;;
11171;SDS011;5642;50.830;12.082;2023-06-10T10:53:40;2.78;;;2.58;;
11171;SDS011;5642;50.830;12.082;2023-06-10T10:59:03;2.55;;;2.35;;
11171;SDS011;5642;50.830;12.082;2023-06-10T11:01:43;2.20;;;2.00;;
11171;SDS011;5642;50.830;12.082;2023-06-10T11:04:12;2.38;;;2.28;;
11171;SDS011;5642;50.830;12.082;2023-06-10T11:06:39;2.20;;;2.10;;
11171;SDS011;5642;50.830;12.082;2023-06-10T11:11:56;1.70;;;1.60;;
11171;SDS011;5642;50.830;12.082;2023-06-10T11:14:27;1.75;;;1.65;;
11171;SDS011;5642;50.830;12.082;2023-06-10T11:16:58;1.77;;;1.67;;
11171;SDS011;5642;50.830;12.082;2023-06-10T11:19:32;1.80;;;1.70;;
11171;SDS011;5642;50.830;12.082;2023-06-10T11:22:05;2.03;;;1.80;;
11171;SDS011;5642;50.830;12.082;2023-06-10T11:24:32;1.70;;;1.60;;
11171;SDS011;5642;50.830;12.082;2023-06-10T11:32:30;1.92;;;1.83;;
11171;SDS011;5642;50.830;12.082;2023-06-10T11:34:57;2.20;;;2.00;;
11171;SDS011;5642;50.830;12.082;2023-06-10T11:37:27;2.47;;;2.28;;
11171;SDS011;5642;50.830;12.082;2023-06-10T11:39:54;2.15;;;1.85;;
11171;SDS011;5642;50.830;12.082;2023-06-10T11:42:23;1.85;;;1.65;;
11171;SDS011;5642;50.830;12.082;2023-06-10T11:44:51;1.98;;;1.88;;
11171;SDS011;5642;50.830;12.082;2023-06-10T11:47:19;1.90;;;1.80;;
11171;SDS011;5642;50.830;12.082;2023-06-10T11:49:46;2.00;;;1.90;;
11171;SDS011;5642;50.830;12.082;2023-06-10T11:52:30;2.03;;;1.92;;
11171;SDS011;5642;50.830;12.082;2023-06-10T11:54:59;1.92;;;1.83;;
11171;SDS011;5642;50.830;12.082;2023-06-10T11:57:25;2.45;;;2.25;;
11171;SDS011;5642;50.830;12.082;2023-06-10T11:59:52;2.60;;;2.40;;
11171;SDS011;5642;50.830;12.082;2023-06-10T12:02:18;2.47;;;2.30;;
11171;SDS011;5642;50.830;12.082;2023-06-10T12:04:44;2.95;;;2.00;;
11171;SDS011;5642;50.830;12.082;2023-06-10T12:07:17;2.13;;;1.98;;
11171;SDS011;5642;50.830;12.082;2023-06-10T12:09:45;2.22;;;1.95;;
11171;SDS011;5642;50.830;12.082;2023-06-10T12:12:11;2.35;;;2.17;;
11171;SDS011;5642;50.830;12.082;2023-06-10T12:17:21;2.40;;;2.20;;
11171;SDS011;5642;50.830;12.082;2023-06-10T12:20:08;2.38;;;2.17;;
11171;SDS011;5642;50.830;12.082;2023-06-10T12:22:49;2.10;;;1.90;;
11171;SDS011;5642;50.830;12.082;2023-06-10T12:25:15;2.05;;;1.95;;
11171;SDS011;5642;50.830;12.082;2023-06-10T12:27:51;2.42;;;2.22;;
11171;SDS011;5642;50.830;12.082;2023-06-10T12:30:19;3.10;;;2.35;;
11171;SDS011;5642;50.830;12.082;2023-06-10T12:32:47;2.60;;;2.40;;
11171;SDS011;5642;50.830;12.082;2023-06-10T12:35:17;2.47;;;2.28;;
11171;SDS011;5642;50.830;12.082;2023-06-10T12:40:40;2.30;;;2.10;;
11171;SDS011;5642;50.830;12.082;2023-06-10T12:43:10;2.05;;;1.95;;
11171;SDS011;5642;50.830;12.082;2023-06-10T12:45:37;2.13;;;2.00;;
11171;SDS011;5642;50.830;12.082;2023-06-10T12:48:16;2.38;;;2.17;;
11171;SDS011;5642;50.830;12.082;2023-06-10T12:50:58;2.42;;;2.22;;
11171;SDS011;5642;50.830;12.082;2023-06-10T12:53:25;2.25;;;2.15;;
11171;SDS011;5642;50.830;12.082;2023-06-10T12:55:52;2.70;;;2.50;;
11171;SDS011;5642;50.830;12.082;2023-06-10T12:58:22;2.30;;;2.20;;
11171;SDS011;5642;50.830;12.082;2023-06-10T13:00:51;2.20;;;2.10;;
11171;SDS011;5642;50.830;12.082;2023-06-10T13:03:21;2.38;;;2.20;;
11171;SDS011;5642;50.830;12.082;2023-06-10T13:05:47;2.10;;;2.00;;
11171;SDS011;5642;50.830;12.082;2023-06-10T13:08:14;2.03;;;1.92;;
11171;SDS011;5642;50.830;12.082;2023-06-10T13:10:40;1.85;;;1.75;;
11171;SDS011;5642;50.830;12.082;2023-06-10T13:13:06;1.98;;;1.88;;
11171;SDS011;5642;50.830;12.082;2023-06-10T13:15:35;2.00;;;1.90;;
11171;SDS011;5642;50.830;12.082;2023-06-10T13:18:05;2.03;;;1.92;;
11171;SDS011;5642;50.830;12.082;2023-06-10T13:20:31;1.90;;;1.80;;
11171;SDS011;5642;50.830;12.082;2023-06-10T13:22:57;1.88;;;1.77;;
11171;SDS011;5642;50.830;12.082;2023-06-10T13:25:24;1.92;;;1.83;;
11171;SDS011;5642;50.830;12.082;2023-06-10T13:28:08;1.95;;;1.85;;
11171;SDS011;5642;50.830;12.082;2023-06-10T13:30:34;1.98;;;1.88;;
11171;SDS011;5642;50.830;12.082;2023-06-10T13:33:01;1.88;;;1.77;;
11171;SDS011;5642;50.830;12.082;2023-06-10T13:35:27;2.13;;;2.03;;
11171;SDS011;5642;50.830;12.082;2023-06-10T13:37:56;1.88;;;1.77;;
11171;SDS011;5642;50.830;12.082;2023-06-10T13:40:22;1.98;;;1.88;;
11171;SDS011;5642;50.830;12.082;2023-06-10T13:42:49;1.88;;;1.77;;
11171;SDS011;5642;50.830;12.082;2023-06-10T13:45:16;1.92;;;1.83;;
11171;SDS011;5642;50.830;12.082;2023-06-10T13:47:42;2.10;;;2.00;;
11171;SDS011;5642;50.830;12.082;2023-06-10T13:50:09;2.10;;;2.00;;
11171;SDS011;5642;50.830;12.082;2023-06-10T13:52:35;1.88;;;1.77;;
11171;SDS011;5642;50.830;12.082;2023-06-10T13:55:01;2.10;;;2.00;;
11171;SDS011;5642;50.830;12.082;2023-06-10T13:57:27;2.10;;;1.90;;
11171;SDS011;5642;50.830;12.082;2023-06-10T13:59:53;1.67;;;1.58;;
11171;SDS011;5642;50.830;12.082;2023-06-10T14:02:21;2.05;;;1.95;;
11171;SDS011;5642;50.830;12.082;2023-06-10T14:04:48;1.90;;;1.80;;
11171;SDS011;5642;50.830;12.082;2023-06-10T14:07:14;3.35;;;2.00;;
11171;SDS011;5642;50.830;12.082;2023-06-10T14:09:41;2.10;;;2.00;;
11171;SDS011;5642;50.830;12.082;2023-06-10T14:12:07;2.00;;;1.90;;
11171;SDS011;5642;50.830;12.082;2023-06-10T14:14:35;2.10;;;2.00;;
11171;SDS011;5642;50.830;12.082;2023-06-10T14:17:01;2.03;;;1.90;;
11171;SDS011;5642;50.830;12.082;2023-06-10T14:19:28;2.17;;;2.03;;
11171;SDS011;5642;50.830;12.082;2023-06-10T14:21:55;1.88;;;1.77;;
11171;SDS011;5642;50.830;12.082;2023-06-10T14:24:21;2.00;;;1.88;;
11171;SDS011;5642;50.830;12.082;2023-06-10T14:26:47;2.00;;;1.90;;
11171;SDS011;5642;50.830;12.082;2023-06-10T14:29:14;1.98;;;1.77;;
11171;SDS011;5642;50.830;12.082;2023-06-10T14:31:40;1.67;;;1.58;;
11171;SDS011;5642;50.830;12.082;2023-06-10T14:34:06;3.80;;;1.75;;
11171;SDS011;5642;50.830;12.082;2023-06-10T14:36:35;1.77;;;1.67;;
11171;SDS011;5642;50.830;12.082;2023-06-10T14:39:02;1.80;;;1.70;;
11171;SDS011;5642;50.830;12.082;2023-06-10T14:41:29;1.63;;;1.52;;
11171;SDS011;5642;50.830;12.082;2023-06-10T14:43:55;2.40;;;1.80;;
11171;SDS011;5642;50.830;12.082;2023-06-10T14:46:21;1.77;;;1.67;;
11171;SDS011;5642;50.830;12.082;2023-06-10T14:48:48;1.80;;;1.70;;
11171;SDS011;5642;50.830;12.082;2023-06-10T14:51:17;2.00;;;1.90;;
11171;SDS011;5642;50.830;12.082;2023-06-10T14:53:43;2.05;;;1.95;;
11171;SDS011;5642;50.830;12.082;2023-06-10T14:56:11;1.88;;;1.70;;
11171;SDS011;5642;50.830;12.082;2023-06-10T14:58:37;1.77;;;1.67;;
11171;SDS011;5642;50.830;12.082;2023-06-10T15:01:04;2.25;;;1.95;;
11171;SDS011;5642;50.830;12.082;2023-06-10T15:03:30;2.03;;;1.77;;
11171;SDS011;5642;50.830;12.082;2023-06-10T15:05:56;2.00;;;1.90;;
11171;SDS011;5642;50.830;12.082;2023-06-10T15:08:23;1.92;;;1.83;;
11171;SDS011;5642;50.830;12.082;2023-06-10T15:10:48;2.03;;;1.75;;
11171;SDS011;5642;50.830;12.082;2023-06-10T15:13:15;1.90;;;1.80;;
11171;SDS011;5642;50.830;12.082;2023-06-10T15:15:41;2.10;;;1.90;;
11171;SDS011;5642;50.830;12.082;2023-06-10T15:18:07;2.20;;;2.10;;